sensor_id;sensor_type;location;lat;lon;timestamp;P1;durP1;ratioP1;P2;durP2;ratioP2
24443;SDS011;13346;50.984;5.822;2024-01-15T00:01:01;27.70;;;16.03;;
24443;SDS011;13346;50.984;5.822;2024-01-15T00:03:30;25.10;;;16.33;;
24443;SDS011;13346;50.984;5.822;2024-01-15T00:05:57;24.40;;;13.93;;
24443;SDS011;13346;50.984;5.822;2024-01-15T00:08:25;23.53;;;14.23;;
24443;SDS011;13346;50.984;5.822;2024-01-15T00:10:52;29.77;;;16.00;;
24443;SDS011;13346;50.984;5.822;2024-01-15T00:13:20;27.53;;;15.80;;
24443;SDS011;13346;50.984;5.822;2024-01-15T00:15:47;24.30;;;13.20;;
24443;SDS011;13346;50.984;5.822;2024-01-15T00:18:14;29.87;;;15.53;;
24443;SDS011;13346;50.984;5.822;2024-01-15T00:20:43;30.53;;;14.67;;
24443;SDS011;13346;50.984;5.822;2024-01-15T00:23:10;27.80;;;15.13;;
24443;SDS011;13346;50.984;5.822;2024-01-15T00:25:37;30.27;;;17.23;;
24443;SDS011;13346;50.984;5.822;2024-01-15T00:28:05;21.40;;;11.93;;
24443;SDS011;13346;50.984;5.822;2024-01-15T00:30:32;25.73;;;15.40;;
24443;SDS011;13346;50.984;5.822;2024-01-15T00:32:59;16.27;;;11.90;;
24443;SDS011;13346;50.984;5.822;2024-01-15T00:35:26;33.37;;;15.13;;
24443;SDS011;13346;50.984;5.822;2024-01-15T00:37:55;33.07;;;15.67;;
24443;SDS011;13346;50.984;5.822;2024-01-15T00:40:25;22.67;;;13.53;;
24443;SDS011;13346;50.984;5.822;2024-01-15T00:42:52;21.67;;;13.53;;
24443;SDS011;13346;50.984;5.822;2024-01-15T00:45:19;22.53;;;14.10;;
24443;SDS011;13346;50.984;5.822;2024-01-15T00:47:46;23.37;;;12.83;;
24443;SDS011;13346;50.984;5.822;2024-01-15T00:50:14;27.43;;;15.73;;
24443;SDS011;13346;50.984;5.822;2024-01-15T00:52:42;33.33;;;15.03;;
24443;SDS011;13346;50.984;5.822;2024-01-15T00:55:11;32.23;;;15.37;;
24443;SDS011;13346;50.984;5.822;2024-01-15T00:57:38;21.93;;;14.67;;
24443;SDS011;13346;50.984;5.822;2024-01-15T01:00:06;35.47;;;16.60;;
24443;SDS011;13346;50.984;5.822;2024-01-15T01:02:34;33.60;;;16.80;;
24443;SDS011;13346;50.984;5.822;2024-01-15T01:05:01;30.83;;;18.00;;
24443;SDS011;13346;50.984;5.822;2024-01-15T01:07:29;27.20;;;14.73;;
24443;SDS011;13346;50.984;5.822;2024-01-15T01:09:56;30.20;;;16.87;;
24443;SDS011;13346;50.984;5.822;2024-01-15T01:12:25;27.43;;;17.33;;
24443;SDS011;13346;50.984;5.822;2024-01-15T01:14:52;25.87;;;15.83;;
24443;SDS011;13346;50.984;5.822;2024-01-15T01:17:20;20.70;;;12.27;;
24443;SDS011;13346;50.984;5.822;2024-01-15T01:19:47;27.47;;;15.53;;
24443;SDS011;13346;50.984;5.822;2024-01-15T01:22:14;24.63;;;15.00;;
24443;SDS011;13346;50.984;5.822;2024-01-15T01:24:41;22.73;;;13.40;;
24443;SDS011;13346;50.984;5.822;2024-01-15T01:27:08;27.53;;;14.00;;
24443;SDS011;13346;50.984;5.822;2024-01-15T01:29:37;26.30;;;14.20;;
24443;SDS011;13346;50.984;5.822;2024-01-15T01:32:04;20.73;;;12.93;;
24443;SDS011;13346;50.984;5.822;2024-01-15T01:34:32;28.93;;;15.90;;
24443;SDS011;13346;50.984;5.822;2024-01-15T01:37:06;32.17;;;17.30;;
24443;SDS011;13346;50.984;5.822;2024-01-15T01:39:33;30.70;;;17.20;;
24443;SDS011;13346;50.984;5.822;2024-01-15T01:42:00;24.97;;;13.37;;
24443;SDS011;13346;50.984;5.822;2024-01-15T01:44:28;33.57;;;18.03;;
24443;SDS011;13346;50.984;5.822;2024-01-15T01:46:57;21.07;;;12.80;;
24443;SDS011;13346;50.984;5.822;2024-01-15T01:49:25;33.73;;;16.13;;
24443;SDS011;13346;50.984;5.822;2024-01-15T01:51:53;29.03;;;16.67;;
24443;SDS011;13346;50.984;5.822;2024-01-15T01:54:21;32.80;;;17.77;;
24443;SDS011;13346;50.984;5.822;2024-01-15T01:56:49;32.93;;;18.63;;
24443;SDS011;13346;50.984;5.822;2024-01-15T01:59:17;34.27;;;19.37;;
24443;SDS011;13346;50.984;5.822;2024-01-15T02:01:45;27.87;;;15.43;;
24443;SDS011;13346;50.984;5.822;2024-01-15T02:04:14;22.63;;;13.97;;
24443;SDS011;13346;50.984;5.822;2024-01-15T02:06:41;20.20;;;12.53;;
24443;SDS011;13346;50.984;5.822;2024-01-15T02:09:08;29.83;;;14.60;;
24443;SDS011;13346;50.984;5.822;2024-01-15T02:11:36;18.17;;;10.30;;
24443;SDS011;13346;50.984;5.822;2024-01-15T02:14:03;17.57;;;12.13;;
24443;SDS011;13346;50.984;5.822;2024-01-15T02:16:30;29.83;;;17.20;;
24443;SDS011;13346;50.984;5.822;2024-01-15T02:18:57;23.93;;;14.50;;
24443;SDS011;13346;50.984;5.822;2024-01-15T02:21:26;28.77;;;17.10;;
24443;SDS011;13346;50.984;5.822;2024-01-15T02:23:55;34.17;;;17.07;;
24443;SDS011;13346;50.984;5.822;2024-01-15T02:26:22;31.93;;;17.50;;
24443;SDS011;13346;50.984;5.822;2024-01-15T02:28:49;30.50;;;15.97;;
24443;SDS011;13346;50.984;5.822;2024-01-15T02:31:17;23.80;;;14.80;;
24443;SDS011;13346;50.984;5.822;2024-01-15T02:33:44;25.97;;;15.40;;
24443;SDS011;13346;50.984;5.822;2024-01-15T02:36:12;25.70;;;14.90;;
24443;SDS011;13346;50.984;5.822;2024-01-15T02:38:39;28.33;;;14.27;;
24443;SDS011;13346;50.984;5.822;2024-01-15T02:41:09;23.93;;;14.67;;
24443;SDS011;13346;50.984;5.822;2024-01-15T02:43:39;24.37;;;14.43;;
24443;SDS011;13346;50.984;5.822;2024-01-15T02:46:07;25.27;;;14.77;;
24443;SDS011;13346;50.984;5.822;2024-01-15T02:48:34;23.50;;;14.83;;
24443;SDS011;13346;50.984;5.822;2024-01-15T02:51:02;24.67;;;15.50;;
24443;SDS011;13346;50.984;5.822;2024-01-15T02:53:29;26.27;;;15.37;;
24443;SDS011;13346;50.984;5.822;2024-01-15T02:55:57;23.40;;;13.77;;
24443;SDS011;13346;50.984;5.822;2024-01-15T02:58:25;19.97;;;12.27;;
24443;SDS011;13346;50.984;5.822;2024-01-15T03:00:52;26.07;;;16.30;;
24443;SDS011;13346;50.984;5.822;2024-01-15T03:03:20;20.93;;;12.00;;
24443;SDS011;13346;50.984;5.822;2024-01-15T03:05:47;21.53;;;14.10;;
24443;SDS011;13346;50.984;5.822;2024-01-15T03:08:15;23.20;;;13.43;;
24443;SDS011;13346;50.984;5.822;2024-01-15T03:10:42;23.70;;;15.00;;
24443;SDS011;13346;50.984;5.822;2024-01-15T03:13:09;28.87;;;15.90;;
24443;SDS011;13346;50.984;5.822;2024-01-15T03:15:39;29.50;;;16.27;;
24443;SDS011;13346;50.984;5.822;2024-01-15T03:18:06;25.70;;;15.20;;
24443;SDS011;13346;50.984;5.822;2024-01-15T03:20:33;21.73;;;13.33;;
24443;SDS011;13346;50.984;5.822;2024-01-15T03:23:00;23.17;;;11.93;;
24443;SDS011;13346;50.984;5.822;2024-01-15T03:25:28;27.27;;;14.83;;
24443;SDS011;13346;50.984;5.822;2024-01-15T03:27:55;24.83;;;15.00;;
24443;SDS011;13346;50.984;5.822;2024-01-15T03:30:22;17.63;;;11.93;;
24443;SDS011;13346;50.984;5.822;2024-01-15T03:32:51;13.27;;;8.47;;
24443;SDS011;13346;50.984;5.822;2024-01-15T03:35:18;21.50;;;12.97;;
24443;SDS011;13346;50.984;5.822;2024-01-15T03:37:45;22.13;;;14.63;;
24443;SDS011;13346;50.984;5.822;2024-01-15T03:40:13;27.23;;;14.23;;
24443;SDS011;13346;50.984;5.822;2024-01-15T03:42:40;20.17;;;10.63;;
24443;SDS011;13346;50.984;5.822;2024-01-15T03:45:07;21.53;;;13.87;;
24443;SDS011;13346;50.984;5.822;2024-01-15T03:47:35;18.03;;;11.03;;
24443;SDS011;13346;50.984;5.822;2024-01-15T03:50:04;17.53;;;10.30;;
24443;SDS011;13346;50.984;5.822;2024-01-15T03:52:32;19.47;;;11.37;;
24443;SDS011;13346;50.984;5.822;2024-01-15T03:54:59;21.00;;;11.33;;
24443;SDS011;13346;50.984;5.822;2024-01-15T03:57:26;19.43;;;11.10;;
24443;SDS011;13346;50.984;5.822;2024-01-15T03:59:54;22.63;;;10.90;;
24443;SDS011;13346;50.984;5.822;2024-01-15T04:02:21;19.73;;;10.93;;
24443;SDS011;13346;50.984;5.822;2024-01-15T04:04:48;11.30;;;7.33;;
24443;SDS011;13346;50.984;5.822;2024-01-15T04:07:17;21.20;;;9.40;;
24443;SDS011;13346;50.984;5.822;2024-01-15T04:09:44;15.27;;;10.87;;
24443;SDS011;13346;50.984;5.822;2024-01-15T04:12:11;15.63;;;10.23;;
24443;SDS011;13346;50.984;5.822;2024-01-15T04:14:38;16.47;;;10.07;;
24443;SDS011;13346;50.984;5.822;2024-01-15T04:17:06;12.47;;;10.40;;
24443;SDS011;13346;50.984;5.822;2024-01-15T04:19:33;18.80;;;11.13;;
24443;SDS011;13346;50.984;5.822;2024-01-15T04:22:01;10.17;;;6.67;;
24443;SDS011;13346;50.984;5.822;2024-01-15T04:24:32;12.77;;;8.97;;
24443;SDS011;13346;50.984;5.822;2024-01-15T04:26:59;14.43;;;10.30;;
24443;SDS011;13346;50.984;5.822;2024-01-15T04:29:27;17.20;;;11.47;;
24443;SDS011;13346;50.984;5.822;2024-01-15T04:31:54;19.20;;;11.03;;
24443;SDS011;13346;50.984;5.822;2024-01-15T04:34:21;14.73;;;11.93;;
24443;SDS011;13346;50.984;5.822;2024-01-15T04:36:48;13.83;;;10.97;;
24443;SDS011;13346;50.984;5.822;2024-01-15T04:39:16;17.63;;;12.53;;
24443;SDS011;13346;50.984;5.822;2024-01-15T04:41:44;15.67;;;10.73;;
24443;SDS011;13346;50.984;5.822;2024-01-15T04:44:12;19.40;;;11.80;;
24443;SDS011;13346;50.984;5.822;2024-01-15T04:46:39;15.93;;;11.10;;
24443;SDS011;13346;50.984;5.822;2024-01-15T04:49:06;13.43;;;8.47;;
24443;SDS011;13346;50.984;5.822;2024-01-15T04:51:34;16.70;;;11.37;;
24443;SDS011;13346;50.984;5.822;2024-01-15T04:54:01;17.60;;;11.03;;
24443;SDS011;13346;50.984;5.822;2024-01-15T04:56:28;14.33;;;8.73;;
24443;SDS011;13346;50.984;5.822;2024-01-15T04:58:57;11.40;;;9.23;;
24443;SDS011;13346;50.984;5.822;2024-01-15T05:01:24;19.40;;;10.50;;
24443;SDS011;13346;50.984;5.822;2024-01-15T05:03:52;13.40;;;10.30;;
24443;SDS011;13346;50.984;5.822;2024-01-15T05:06:19;16.80;;;11.77;;
24443;SDS011;13346;50.984;5.822;2024-01-15T05:08:46;19.17;;;11.60;;
24443;SDS011;13346;50.984;5.822;2024-01-15T05:11:14;16.73;;;10.80;;
24443;SDS011;13346;50.984;5.822;2024-01-15T05:13:41;17.27;;;11.53;;
24443;SDS011;13346;50.984;5.822;2024-01-15T05:16:10;10.50;;;8.57;;
24443;SDS011;13346;50.984;5.822;2024-01-15T05:18:37;15.33;;;10.70;;
24443;SDS011;13346;50.984;5.822;2024-01-15T05:21:04;17.87;;;9.93;;
24443;SDS011;13346;50.984;5.822;2024-01-15T05:23:32;10.77;;;7.73;;
24443;SDS011;13346;50.984;5.822;2024-01-15T05:25:59;12.93;;;9.03;;
24443;SDS011;13346;50.984;5.822;2024-01-15T05:28:26;11.60;;;8.87;;
24443;SDS011;13346;50.984;5.822;2024-01-15T05:30:53;16.43;;;10.43;;
24443;SDS011;13346;50.984;5.822;2024-01-15T05:33:22;9.97;;;7.03;;
24443;SDS011;13346;50.984;5.822;2024-01-15T05:35:49;17.10;;;10.63;;
24443;SDS011;13346;50.984;5.822;2024-01-15T05:38:17;9.87;;;7.90;;
24443;SDS011;13346;50.984;5.822;2024-01-15T05:40:44;7.63;;;6.93;;
24443;SDS011;13346;50.984;5.822;2024-01-15T05:43:11;16.83;;;10.50;;
24443;SDS011;13346;50.984;5.822;2024-01-15T05:45:38;9.07;;;8.17;;
24443;SDS011;13346;50.984;5.822;2024-01-15T05:48:10;12.10;;;8.27;;
24443;SDS011;13346;50.984;5.822;2024-01-15T05:50:39;11.97;;;9.67;;
24443;SDS011;13346;50.984;5.822;2024-01-15T05:53:08;15.37;;;10.50;;
24443;SDS011;13346;50.984;5.822;2024-01-15T05:55:35;12.17;;;8.20;;
24443;SDS011;13346;50.984;5.822;2024-01-15T05:58:03;16.67;;;10.87;;
24443;SDS011;13346;50.984;5.822;2024-01-15T06:00:30;18.53;;;9.80;;
24443;SDS011;13346;50.984;5.822;2024-01-15T06:03:00;17.67;;;10.47;;
24443;SDS011;13346;50.984;5.822;2024-01-15T06:05:28;8.73;;;6.53;;
24443;SDS011;13346;50.984;5.822;2024-01-15T06:07:56;16.33;;;11.17;;
24443;SDS011;13346;50.984;5.822;2024-01-15T06:10:23;16.07;;;11.73;;
24443;SDS011;13346;50.984;5.822;2024-01-15T06:12:50;14.80;;;10.07;;
24443;SDS011;13346;50.984;5.822;2024-01-15T06:15:18;11.60;;;9.43;;
24443;SDS011;13346;50.984;5.822;2024-01-15T06:17:45;19.60;;;10.97;;
24443;SDS011;13346;50.984;5.822;2024-01-15T06:20:12;14.20;;;10.00;;
24443;SDS011;13346;50.984;5.822;2024-01-15T06:22:40;20.37;;;12.30;;
24443;SDS011;13346;50.984;5.822;2024-01-15T06:25:08;12.00;;;8.90;;
24443;SDS011;13346;50.984;5.822;2024-01-15T06:27:36;22.77;;;12.60;;
24443;SDS011;13346;50.984;5.822;2024-01-15T06:30:03;21.80;;;12.93;;
24443;SDS011;13346;50.984;5.822;2024-01-15T06:32:31;12.50;;;7.40;;
24443;SDS011;13346;50.984;5.822;2024-01-15T06:34:59;19.70;;;12.67;;
24443;SDS011;13346;50.984;5.822;2024-01-15T06:37:26;10.67;;;8.03;;
24443;SDS011;13346;50.984;5.822;2024-01-15T06:39:53;15.23;;;9.50;;
24443;SDS011;13346;50.984;5.822;2024-01-15T06:42:22;16.10;;;10.90;;
24443;SDS011;13346;50.984;5.822;2024-01-15T06:44:49;18.10;;;11.13;;
24443;SDS011;13346;50.984;5.822;2024-01-15T06:47:16;15.33;;;10.30;;
24443;SDS011;13346;50.984;5.822;2024-01-15T06:49:43;21.87;;;13.83;;
24443;SDS011;13346;50.984;5.822;2024-01-15T06:52:11;12.87;;;9.30;;
24443;SDS011;13346;50.984;5.822;2024-01-15T06:54:38;11.83;;;8.93;;
24443;SDS011;13346;50.984;5.822;2024-01-15T06:57:05;16.40;;;11.03;;
24443;SDS011;13346;50.984;5.822;2024-01-15T06:59:35;22.60;;;14.07;;
24443;SDS011;13346;50.984;5.822;2024-01-15T07:02:02;21.87;;;12.80;;
24443;SDS011;13346;50.984;5.822;2024-01-15T07:04:30;20.70;;;11.90;;
24443;SDS011;13346;50.984;5.822;2024-01-15T07:06:57;27.00;;;14.60;;
24443;SDS011;13346;50.984;5.822;2024-01-15T07:09:24;18.17;;;13.50;;
24443;SDS011;13346;50.984;5.822;2024-01-15T07:11:51;24.87;;;13.03;;
24443;SDS011;13346;50.984;5.822;2024-01-15T07:14:19;21.57;;;12.67;;
24443;SDS011;13346;50.984;5.822;2024-01-15T07:16:47;26.13;;;13.67;;
24443;SDS011;13346;50.984;5.822;2024-01-15T07:19:15;19.83;;;12.63;;
24443;SDS011;13346;50.984;5.822;2024-01-15T07:21:42;19.63;;;13.73;;
24443;SDS011;13346;50.984;5.822;2024-01-15T07:24:09;20.23;;;13.03;;
24443;SDS011;13346;50.984;5.822;2024-01-15T07:26:36;22.60;;;13.30;;
24443;SDS011;13346;50.984;5.822;2024-01-15T07:29:04;17.00;;;9.40;;
24443;SDS011;13346;50.984;5.822;2024-01-15T07:31:31;16.90;;;12.50;;
24443;SDS011;13346;50.984;5.822;2024-01-15T07:34:00;17.80;;;12.03;;
24443;SDS011;13346;50.984;5.822;2024-01-15T07:36:27;23.80;;;12.70;;
24443;SDS011;13346;50.984;5.822;2024-01-15T07:38:55;12.53;;;7.37;;
24443;SDS011;13346;50.984;5.822;2024-01-15T07:41:22;14.23;;;10.73;;
24443;SDS011;13346;50.984;5.822;2024-01-15T07:43:49;16.30;;;10.87;;
24443;SDS011;13346;50.984;5.822;2024-01-15T07:46:18;19.97;;;9.50;;
24443;SDS011;13346;50.984;5.822;2024-01-15T07:48:45;19.90;;;11.43;;
24443;SDS011;13346;50.984;5.822;2024-01-15T07:51:14;12.03;;;9.07;;
24443;SDS011;13346;50.984;5.822;2024-01-15T07:53:41;15.43;;;10.90;;
24443;SDS011;13346;50.984;5.822;2024-01-15T07:56:08;14.10;;;9.10;;
24443;SDS011;13346;50.984;5.822;2024-01-15T07:58:36;15.30;;;9.30;;
24443;SDS011;13346;50.984;5.822;2024-01-15T08:01:03;11.87;;;9.43;;
24443;SDS011;13346;50.984;5.822;2024-01-15T08:03:31;13.70;;;10.03;;
24443;SDS011;13346;50.984;5.822;2024-01-15T08:05:59;11.17;;;6.23;;
24443;SDS011;13346;50.984;5.822;2024-01-15T08:08:27;8.20;;;6.07;;
24443;SDS011;13346;50.984;5.822;2024-01-15T08:10:54;9.80;;;6.13;;
24443;SDS011;13346;50.984;5.822;2024-01-15T08:13:22;9.47;;;8.57;;
24443;SDS011;13346;50.984;5.822;2024-01-15T08:15:52;10.17;;;8.00;;
24443;SDS011;13346;50.984;5.822;2024-01-15T08:18:20;10.47;;;8.00;;
24443;SDS011;13346;50.984;5.822;2024-01-15T08:20:47;7.77;;;5.70;;
24443;SDS011;13346;50.984;5.822;2024-01-15T08:23:16;10.10;;;9.03;;
24443;SDS011;13346;50.984;5.822;2024-01-15T08:25:46;12.17;;;8.90;;
24443;SDS011;13346;50.984;5.822;2024-01-15T08:28:13;11.07;;;7.83;;
24443;SDS011;13346;50.984;5.822;2024-01-15T08:30:41;6.50;;;5.73;;
24443;SDS011;13346;50.984;5.822;2024-01-15T08:33:08;14.57;;;8.10;;
24443;SDS011;13346;50.984;5.822;2024-01-15T08:35:35;8.27;;;6.67;;
24443;SDS011;13346;50.984;5.822;2024-01-15T08:38:02;7.17;;;6.27;;
24443;SDS011;13346;50.984;5.822;2024-01-15T08:40:31;7.77;;;7.00;;
24443;SDS011;13346;50.984;5.822;2024-01-15T08:42:59;8.43;;;7.50;;
24443;SDS011;13346;50.984;5.822;2024-01-15T08:45:27;11.77;;;6.57;;
24443;SDS011;13346;50.984;5.822;2024-01-15T08:47:54;8.33;;;7.30;;
24443;SDS011;13346;50.984;5.822;2024-01-15T08:50:21;8.87;;;6.97;;
24443;SDS011;13346;50.984;5.822;2024-01-15T08:52:49;11.43;;;7.60;;
24443;SDS011;13346;50.984;5.822;2024-01-15T08:55:16;8.90;;;5.63;;
24443;SDS011;13346;50.984;5.822;2024-01-15T08:57:43;6.53;;;6.03;;
24443;SDS011;13346;50.984;5.822;2024-01-15T09:00:13;8.43;;;6.80;;
24443;SDS011;13346;50.984;5.822;2024-01-15T09:02:41;6.03;;;5.43;;
24443;SDS011;13346;50.984;5.822;2024-01-15T09:05:09;6.17;;;5.57;;
24443;SDS011;13346;50.984;5.822;2024-01-15T09:07:36;5.57;;;5.00;;
24443;SDS011;13346;50.984;5.822;2024-01-15T09:10:04;3.77;;;3.47;;
24443;SDS011;13346;50.984;5.822;2024-01-15T09:12:32;5.87;;;4.60;;
24443;SDS011;13346;50.984;5.822;2024-01-15T09:14:59;4.30;;;3.87;;
24443;SDS011;13346;50.984;5.822;2024-01-15T09:17:31;4.97;;;3.93;;
24443;SDS011;13346;50.984;5.822;2024-01-15T09:19:58;4.43;;;3.83;;
24443;SDS011;13346;50.984;5.822;2024-01-15T09:22:26;5.83;;;4.77;;
24443;SDS011;13346;50.984;5.822;2024-01-15T09:24:53;4.13;;;3.77;;
24443;SDS011;13346;50.984;5.822;2024-01-15T09:27:20;3.33;;;3.03;;
24443;SDS011;13346;50.984;5.822;2024-01-15T09:29:47;5.03;;;4.63;;
24443;SDS011;13346;50.984;5.822;2024-01-15T09:32:15;5.03;;;4.63;;
24443;SDS011;13346;50.984;5.822;2024-01-15T09:34:44;5.00;;;4.70;;
24443;SDS011;13346;50.984;5.822;2024-01-15T09:37:13;5.70;;;4.67;;
24443;SDS011;13346;50.984;5.822;2024-01-15T09:39:41;6.70;;;4.60;;
24443;SDS011;13346;50.984;5.822;2024-01-15T09:42:08;4.33;;;3.83;;
24443;SDS011;13346;50.984;5.822;2024-01-15T09:44:37;5.70;;;5.10;;
24443;SDS011;13346;50.984;5.822;2024-01-15T09:47:05;5.70;;;5.17;;
24443;SDS011;13346;50.984;5.822;2024-01-15T09:49:32;6.13;;;5.70;;
24443;SDS011;13346;50.984;5.822;2024-01-15T09:52:01;7.10;;;5.77;;
24443;SDS011;13346;50.984;5.822;2024-01-15T09:54:29;5.97;;;5.27;;
24443;SDS011;13346;50.984;5.822;2024-01-15T09:56:57;5.73;;;5.33;;
24443;SDS011;13346;50.984;5.822;2024-01-15T09:59:25;5.43;;;4.93;;
24443;SDS011;13346;50.984;5.822;2024-01-15T10:01:54;5.87;;;4.17;;
24443;SDS011;13346;50.984;5.822;2024-01-15T10:04:23;7.00;;;5.60;;
24443;SDS011;13346;50.984;5.822;2024-01-15T10:06:51;11.93;;;5.70;;
24443;SDS011;13346;50.984;5.822;2024-01-15T10:09:20;4.63;;;3.30;;
24443;SDS011;13346;50.984;5.822;2024-01-15T10:11:47;5.80;;;4.17;;
24443;SDS011;13346;50.984;5.822;2024-01-15T10:14:15;4.77;;;4.30;;
24443;SDS011;13346;50.984;5.822;2024-01-15T10:16:42;7.80;;;4.40;;
24443;SDS011;13346;50.984;5.822;2024-01-15T10:19:10;9.93;;;4.40;;
24443;SDS011;13346;50.984;5.822;2024-01-15T10:21:37;7.60;;;3.70;;
24443;SDS011;13346;50.984;5.822;2024-01-15T10:24:05;6.17;;;3.70;;
24443;SDS011;13346;50.984;5.822;2024-01-15T10:26:34;8.37;;;3.53;;
24443;SDS011;13346;50.984;5.822;2024-01-15T10:29:01;8.30;;;4.10;;
24443;SDS011;13346;50.984;5.822;2024-01-15T10:31:29;4.47;;;3.27;;
24443;SDS011;13346;50.984;5.822;2024-01-15T10:34:02;5.33;;;3.90;;
24443;SDS011;13346;50.984;5.822;2024-01-15T10:36:40;4.63;;;4.20;;
24443;SDS011;13346;50.984;5.822;2024-01-15T10:39:08;6.70;;;3.60;;
24443;SDS011;13346;50.984;5.822;2024-01-15T10:41:38;5.43;;;3.90;;
24443;SDS011;13346;50.984;5.822;2024-01-15T10:44:06;10.90;;;4.30;;
24443;SDS011;13346;50.984;5.822;2024-01-15T10:46:33;4.53;;;3.20;;
24443;SDS011;13346;50.984;5.822;2024-01-15T10:49:01;6.47;;;2.90;;
24443;SDS011;13346;50.984;5.822;2024-01-15T10:51:29;4.13;;;3.83;;
24443;SDS011;13346;50.984;5.822;2024-01-15T10:53:57;5.80;;;4.10;;
24443;SDS011;13346;50.984;5.822;2024-01-15T10:56:26;10.87;;;4.03;;
24443;SDS011;13346;50.984;5.822;2024-01-15T10:58:57;11.70;;;3.90;;
24443;SDS011;13346;50.984;5.822;2024-01-15T11:01:25;6.23;;;5.10;;
24443;SDS011;13346;50.984;5.822;2024-01-15T11:03:53;6.63;;;4.10;;
24443;SDS011;13346;50.984;5.822;2024-01-15T11:06:23;12.27;;;3.93;;
24443;SDS011;13346;50.984;5.822;2024-01-15T11:08:51;6.40;;;3.77;;
24443;SDS011;13346;50.984;5.822;2024-01-15T11:11:20;10.57;;;3.87;;
24443;SDS011;13346;50.984;5.822;2024-01-15T11:13:48;3.80;;;3.50;;
24443;SDS011;13346;50.984;5.822;2024-01-15T11:16:19;7.90;;;3.53;;
24443;SDS011;13346;50.984;5.822;2024-01-15T11:21:31;6.73;;;4.50;;
24443;SDS011;13346;50.984;5.822;2024-01-15T11:23:59;7.57;;;3.17;;
24443;SDS011;13346;50.984;5.822;2024-01-15T11:26:30;7.33;;;2.60;;
24443;SDS011;13346;50.984;5.822;2024-01-15T11:28:59;3.23;;;2.50;;
24443;SDS011;13346;50.984;5.822;2024-01-15T11:31:56;4.00;;;3.00;;
24443;SDS011;13346;50.984;5.822;2024-01-15T11:40:25;6.17;;;2.90;;
24443;SDS011;13346;50.984;5.822;2024-01-15T11:43:04;6.13;;;2.67;;
24443;SDS011;13346;50.984;5.822;2024-01-15T11:45:32;2.77;;;1.97;;
24443;SDS011;13346;50.984;5.822;2024-01-15T11:48:11;6.60;;;2.40;;
24443;SDS011;13346;50.984;5.822;2024-01-15T11:50:42;1.30;;;1.30;;
24443;SDS011;13346;50.984;5.822;2024-01-15T11:53:17;6.83;;;1.87;;
24443;SDS011;13346;50.984;5.822;2024-01-15T11:55:47;2.80;;;1.87;;
24443;SDS011;13346;50.984;5.822;2024-01-15T11:58:17;5.13;;;2.30;;
24443;SDS011;13346;50.984;5.822;2024-01-15T12:00:46;3.03;;;2.50;;
24443;SDS011;13346;50.984;5.822;2024-01-15T12:03:16;4.07;;;1.53;;
24443;SDS011;13346;50.984;5.822;2024-01-15T12:05:43;2.60;;;1.53;;
24443;SDS011;13346;50.984;5.822;2024-01-15T12:08:11;3.23;;;2.00;;
24443;SDS011;13346;50.984;5.822;2024-01-15T12:10:38;3.23;;;2.17;;
24443;SDS011;13346;50.984;5.822;2024-01-15T12:13:09;3.77;;;3.30;;
24443;SDS011;13346;50.984;5.822;2024-01-15T12:15:37;2.83;;;2.50;;
24443;SDS011;13346;50.984;5.822;2024-01-15T12:18:07;9.37;;;5.63;;
24443;SDS011;13346;50.984;5.822;2024-01-15T12:20:36;7.00;;;2.67;;
24443;SDS011;13346;50.984;5.822;2024-01-15T12:23:05;7.17;;;4.17;;
24443;SDS011;13346;50.984;5.822;2024-01-15T12:25:32;6.57;;;3.20;;
24443;SDS011;13346;50.984;5.822;2024-01-15T12:28:00;2.30;;;2.20;;
24443;SDS011;13346;50.984;5.822;2024-01-15T12:30:28;4.97;;;2.80;;
24443;SDS011;13346;50.984;5.822;2024-01-15T12:32:57;6.67;;;2.60;;
24443;SDS011;13346;50.984;5.822;2024-01-15T12:35:25;2.60;;;2.40;;
24443;SDS011;13346;50.984;5.822;2024-01-15T12:37:54;3.57;;;2.10;;
24443;SDS011;13346;50.984;5.822;2024-01-15T12:40:23;4.90;;;2.10;;
24443;SDS011;13346;50.984;5.822;2024-01-15T12:42:50;4.20;;;2.30;;
24443;SDS011;13346;50.984;5.822;2024-01-15T12:45:18;3.17;;;1.87;;
24443;SDS011;13346;50.984;5.822;2024-01-15T12:47:45;2.40;;;1.60;;
24443;SDS011;13346;50.984;5.822;2024-01-15T12:50:13;5.40;;;2.03;;
24443;SDS011;13346;50.984;5.822;2024-01-15T12:52:40;1.53;;;1.07;;
24443;SDS011;13346;50.984;5.822;2024-01-15T12:55:09;1.00;;;1.00;;
24443;SDS011;13346;50.984;5.822;2024-01-15T12:57:37;4.70;;;1.60;;
24443;SDS011;13346;50.984;5.822;2024-01-15T13:00:05;1.10;;;0.83;;
24443;SDS011;13346;50.984;5.822;2024-01-15T13:02:37;1.60;;;1.17;;
24443;SDS011;13346;50.984;5.822;2024-01-15T13:05:06;1.77;;;1.20;;
24443;SDS011;13346;50.984;5.822;2024-01-15T13:07:35;4.43;;;1.50;;
24443;SDS011;13346;50.984;5.822;2024-01-15T13:10:02;2.43;;;1.30;;
24443;SDS011;13346;50.984;5.822;2024-01-15T13:12:31;1.77;;;1.07;;
24443;SDS011;13346;50.984;5.822;2024-01-15T13:14:59;1.80;;;1.60;;
24443;SDS011;13346;50.984;5.822;2024-01-15T13:17:28;4.00;;;1.20;;
24443;SDS011;13346;50.984;5.822;2024-01-15T13:19:55;1.33;;;1.07;;
24443;SDS011;13346;50.984;5.822;2024-01-15T13:22:23;1.63;;;1.53;;
24443;SDS011;13346;50.984;5.822;2024-01-15T13:24:55;2.87;;;1.30;;
24443;SDS011;13346;50.984;5.822;2024-01-15T13:27:22;1.90;;;1.10;;
24443;SDS011;13346;50.984;5.822;2024-01-15T13:29:51;1.70;;;1.57;;
24443;SDS011;13346;50.984;5.822;2024-01-15T13:32:21;4.80;;;2.93;;
24443;SDS011;13346;50.984;5.822;2024-01-15T13:34:50;1.50;;;1.40;;
24443;SDS011;13346;50.984;5.822;2024-01-15T13:37:18;1.60;;;1.50;;
24443;SDS011;13346;50.984;5.822;2024-01-15T13:39:45;1.80;;;1.70;;
24443;SDS011;13346;50.984;5.822;2024-01-15T13:42:12;2.77;;;1.50;;
24443;SDS011;13346;50.984;5.822;2024-01-15T13:44:40;3.20;;;1.63;;
24443;SDS011;13346;50.984;5.822;2024-01-15T13:47:09;1.60;;;1.50;;
24443;SDS011;13346;50.984;5.822;2024-01-15T13:49:36;4.37;;;2.50;;
24443;SDS011;13346;50.984;5.822;2024-01-15T13:52:04;2.83;;;2.30;;
24443;SDS011;13346;50.984;5.822;2024-01-15T13:54:31;2.33;;;2.23;;
24443;SDS011;13346;50.984;5.822;2024-01-15T13:56:58;2.40;;;2.23;;
24443;SDS011;13346;50.984;5.822;2024-01-15T13:59:27;3.70;;;2.57;;
24443;SDS011;13346;50.984;5.822;2024-01-15T14:01:54;2.73;;;2.53;;
24443;SDS011;13346;50.984;5.822;2024-01-15T14:04:23;2.23;;;2.00;;
24443;SDS011;13346;50.984;5.822;2024-01-15T14:06:50;3.43;;;1.67;;
24443;SDS011;13346;50.984;5.822;2024-01-15T14:09:18;1.70;;;1.60;;
24443;SDS011;13346;50.984;5.822;2024-01-15T14:11:47;4.70;;;2.80;;
24443;SDS011;13346;50.984;5.822;2024-01-15T14:14:14;1.80;;;1.70;;
24443;SDS011;13346;50.984;5.822;2024-01-15T14:16:42;1.87;;;1.80;;
24443;SDS011;13346;50.984;5.822;2024-01-15T14:19:09;2.57;;;2.30;;
24443;SDS011;13346;50.984;5.822;2024-01-15T14:21:38;2.17;;;1.90;;
24443;SDS011;13346;50.984;5.822;2024-01-15T14:24:06;1.77;;;1.67;;
24443;SDS011;13346;50.984;5.822;2024-01-15T14:26:33;1.87;;;1.63;;
24443;SDS011;13346;50.984;5.822;2024-01-15T14:29:00;2.17;;;1.97;;
24443;SDS011;13346;50.984;5.822;2024-01-15T14:31:27;4.70;;;2.30;;
24443;SDS011;13346;50.984;5.822;2024-01-15T14:33:55;2.27;;;2.13;;
24443;SDS011;13346;50.984;5.822;2024-01-15T14:36:23;2.33;;;2.13;;
24443;SDS011;13346;50.984;5.822;2024-01-15T14:38:52;2.63;;;1.77;;
24443;SDS011;13346;50.984;5.822;2024-01-15T14:41:19;2.10;;;1.70;;
24443;SDS011;13346;50.984;5.822;2024-01-15T14:43:47;3.57;;;1.10;;
24443;SDS011;13346;50.984;5.822;2024-01-15T14:46:14;1.00;;;0.87;;